createdAt,value
2019-06-01T00:01:40.395Z,95.30
2019-06-01T00:05:42.751Z,95.60
2019-06-01T00:09:45.152Z,96.30
2019-06-01T00:13:47.698Z,95.60
2019-06-01T00:17:52.896Z,95.90
2019-06-01T00:21:54.811Z,95.60
2019-06-01T00:25:56.705Z,95.30
2019-06-01T00:29:58.618Z,95.30
2019-06-01T00:34:00.519Z,95.50
2019-06-01T00:38:02.580Z,95.60
2019-06-01T00:42:04.658Z,95.60
2019-06-01T00:46:06.728Z,96.40
2019-06-01T00:50:08.873Z,96.20
2019-06-01T00:54:10.777Z,96.00
2019-06-01T00:58:12.754Z,96.10
2019-06-01T01:02:14.650Z,96.00
2019-06-01T01:06:16.565Z,95.90
2019-06-01T01:10:19.378Z,96.20
2019-06-01T01:14:21.284Z,95.70
2019-06-01T01:18:23.255Z,95.70
2019-06-01T01:22:25.139Z,95.60
2019-06-01T01:26:27.048Z,95.60
2019-06-01T01:30:29.023Z,95.80
2019-06-01T01:34:30.923Z,96.50
2019-06-01T01:38:32.852Z,96.30
2019-06-01T01:42:34.756Z,96.00
2019-06-01T01:46:36.654Z,96.00
2019-06-01T01:50:38.560Z,96.10
2019-06-01T01:54:40.579Z,96.50
2019-06-01T01:58:42.482Z,97.30
2019-06-01T02:02:44.383Z,97.20
2019-06-01T02:06:46.294Z,96.70
2019-06-01T02:10:48.204Z,97.20
2019-06-01T02:14:50.119Z,97.40
2019-06-01T02:18:53.868Z,97.10
2019-06-01T02:22:56.797Z,96.90
2019-06-01T02:26:59.335Z,96.70
2019-06-01T02:31:02.129Z,96.80
2019-06-01T02:35:05.867Z,97.00
2019-06-01T02:39:11.555Z,97.20
2019-06-01T02:43:13.512Z,97.00
2019-06-01T02:47:15.427Z,96.70
2019-06-01T02:51:17.438Z,96.60
2019-06-01T02:55:20.447Z,96.50
2019-06-01T02:59:22.384Z,96.60
2019-06-01T03:03:24.493Z,96.70
2019-06-01T03:07:31.508Z,96.40
2019-06-01T03:11:36.183Z,96.30
2019-06-01T03:15:42.837Z,96.30
2019-06-01T03:19:48.195Z,96.30
2019-06-01T03:23:52.784Z,96.50
2019-06-01T03:27:57.213Z,97.00
2019-06-01T03:32:20.685Z,96.90
2019-06-01T03:36:04.806Z,97.70
2019-06-01T03:40:15.892Z,97.50
2019-06-01T03:44:12.992Z,97.30
2019-06-01T03:48:15.170Z,97.90
2019-06-01T03:52:17.056Z,97.40
2019-06-01T03:56:18.970Z,97.70
2019-06-01T04:00:20.951Z,97.90
2019-06-01T04:04:22.842Z,98.00
2019-06-01T04:08:24.753Z,98.30
2019-06-01T04:12:26.632Z,98.40
2019-06-01T04:16:28.534Z,98.60
2019-06-01T04:20:30.434Z,98.70
2019-06-01T04:24:32.345Z,98.60
2019-06-01T04:28:34.319Z,98.50
2019-06-01T04:32:48.912Z,98.60
2019-06-01T04:36:39.974Z,98.60
2019-06-01T04:40:42.134Z,98.90
2019-06-01T04:44:44.061Z,98.70
2019-06-01T04:48:45.978Z,98.90
2019-06-01T04:52:47.880Z,98.80
2019-06-01T04:56:49.804Z,98.80
2019-06-01T05:00:52.770Z,98.90
2019-06-01T05:04:54.678Z,99.10
2019-06-01T05:08:56.584Z,99.20
2019-06-01T05:12:58.568Z,99.10
2019-06-01T05:17:00.470Z,99.10
2019-06-01T05:21:02.466Z,99.00
2019-06-01T05:25:07.178Z,99.30
2019-06-01T05:29:09.380Z,98.90
2019-06-01T05:33:27.147Z,98.40
2019-06-01T05:37:16.562Z,98.00
2019-06-01T05:41:19.948Z,97.90
2019-06-01T05:45:22.809Z,97.50
2019-06-01T05:49:25.024Z,97.50
2019-06-01T05:53:27.033Z,97.40
2019-06-01T05:57:28.959Z,97.20
2019-06-01T06:01:30.940Z,97.40
2019-06-01T06:05:32.834Z,96.70
2019-06-01T06:09:34.756Z,96.10
2019-06-01T06:13:36.868Z,96.20
2019-06-01T06:17:38.846Z,96.10
2019-06-01T06:21:40.737Z,94.90
2019-06-01T06:25:42.676Z,94.60
2019-06-01T06:29:44.590Z,94.20
2019-06-01T06:33:56.068Z,93.20
2019-06-01T06:37:50.082Z,93.40
2019-06-01T06:41:52.001Z,93.30
2019-06-01T06:45:53.892Z,92.60
2019-06-01T06:49:55.929Z,91.90
2019-06-01T06:53:57.812Z,92.40
2019-06-01T06:57:59.730Z,92.40
2019-06-01T07:02:01.606Z,92.20
2019-06-01T07:06:04.384Z,91.80
2019-06-01T07:10:07.404Z,91.20
2019-06-01T07:14:10.069Z,91.10
2019-06-01T07:18:11.973Z,90.70
2019-06-01T07:22:16.869Z,90.30
2019-06-01T07:26:17.458Z,89.50
2019-06-01T07:30:22.101Z,88.40
2019-06-01T07:34:35.851Z,87.60
2019-06-01T07:38:28.900Z,86.50
2019-06-01T07:42:30.918Z,85.30
2019-06-01T07:46:33.252Z,85.10
2019-06-01T07:50:35.206Z,82.20
2019-06-01T07:54:37.116Z,80.80
2019-06-01T07:58:39.025Z,81.50
2019-06-01T08:02:41.718Z,79.20
2019-06-01T08:06:47.236Z,78.90
2019-06-01T08:10:47.231Z,76.20
2019-06-01T08:14:49.133Z,76.90
2019-06-01T08:18:53.249Z,75.30
2019-06-01T08:22:55.700Z,76.30
2019-06-01T08:26:57.605Z,74.60
2019-06-01T08:30:59.518Z,73.70
2019-06-01T08:35:08.332Z,71.60
2019-06-01T08:39:07.454Z,72.40
2019-06-01T08:43:09.450Z,67.40
2019-06-01T08:47:11.722Z,66.30
2019-06-01T08:51:13.634Z,68.90
2019-06-01T08:55:15.754Z,67.20
2019-06-01T08:59:17.770Z,65.20
2019-06-01T09:03:19.653Z,66.50
2019-06-01T09:07:21.552Z,64.20
2019-06-01T09:11:23.461Z,62.30
2019-06-01T09:15:25.647Z,61.60
2019-06-01T09:19:27.657Z,60.20
2019-06-01T09:23:29.619Z,57.40
2019-06-01T09:27:32.027Z,56.40
2019-06-01T09:31:34.360Z,57.60
2019-06-01T09:35:52.571Z,59.40
2019-06-01T09:39:40.229Z,56.70
2019-06-01T09:43:42.140Z,54.30
2019-06-01T09:47:44.261Z,51.70
2019-06-01T09:51:46.301Z,50.20
2019-06-01T09:55:48.218Z,50.60
2019-06-01T09:59:50.163Z,48.20
2019-06-01T10:03:52.089Z,48.60
2019-06-01T10:07:54.073Z,50.60
2019-06-01T10:11:56.008Z,51.00
2019-06-01T10:15:57.911Z,50.90
2019-06-01T10:19:59.819Z,54.80
2019-06-01T10:24:01.768Z,52.00
2019-06-01T10:28:04.758Z,53.10
2019-06-01T10:32:06.931Z,48.80
2019-06-01T10:36:19.939Z,46.40
2019-06-01T10:40:12.789Z,45.90
2019-06-01T10:44:14.693Z,42.50
2019-06-01T10:48:16.606Z,41.80
2019-06-01T10:52:18.533Z,42.60
2019-06-01T10:56:20.536Z,42.40
2019-06-01T11:00:37.913Z,42.80
2019-06-01T11:04:26.967Z,42.40
2019-06-01T11:08:28.875Z,44.60
2019-06-01T11:12:30.883Z,42.30
2019-06-01T11:16:32.962Z,43.70
2019-06-01T11:20:35.203Z,42.40
2019-06-01T11:24:37.509Z,42.50
2019-06-01T11:28:40.104Z,41.10
2019-06-01T11:32:43.610Z,43.30
2019-06-01T11:37:03.301Z,43.00
2019-06-01T11:40:49.827Z,42.00
2019-06-01T11:44:51.722Z,41.20
2019-06-01T11:48:53.659Z,41.10
2019-06-01T11:52:55.586Z,41.70
2019-06-01T11:56:57.493Z,42.10
2019-06-01T12:00:59.382Z,42.60
2019-06-01T12:05:01.710Z,39.50
2019-06-01T12:09:07.774Z,38.80
2019-06-01T12:13:09.685Z,38.40
2019-06-01T12:17:11.582Z,37.00
2019-06-01T12:21:13.545Z,35.40
2019-06-01T12:25:15.787Z,35.60
2019-06-01T12:29:17.781Z,35.80
2019-06-01T12:33:19.683Z,35.90
2019-06-01T12:37:40.131Z,34.80
2019-06-01T12:41:25.247Z,32.60
2019-06-01T12:45:27.177Z,35.20
2019-06-01T12:49:29.092Z,32.80
2019-06-01T12:53:31.002Z,35.40
2019-06-01T12:57:32.898Z,34.00
2019-06-01T13:01:34.801Z,32.40
2019-06-01T13:05:36.706Z,33.60
2019-06-01T13:09:38.689Z,36.80
2019-06-01T13:13:41.226Z,34.70
2019-06-01T13:17:43.253Z,34.80
2019-06-01T13:21:45.363Z,35.00
2019-06-01T13:25:47.648Z,35.70
2019-06-01T13:29:50.220Z,38.00
2019-06-01T13:33:53.651Z,38.70
2019-06-01T13:38:10.668Z,38.00
2019-06-01T13:41:59.404Z,34.50
2019-06-01T13:46:01.645Z,32.40
2019-06-01T13:50:06.942Z,32.10
2019-06-01T13:54:09.061Z,33.30
2019-06-01T13:58:11.051Z,33.10
2019-06-01T14:02:13.009Z,32.80
2019-06-01T14:06:14.921Z,31.50
2019-06-01T14:10:18.332Z,31.50
2019-06-01T14:14:20.245Z,31.70
2019-06-01T14:18:22.220Z,30.20
2019-06-01T14:22:25.090Z,31.10
2019-06-01T14:26:27.162Z,30.90
2019-06-01T14:30:29.067Z,31.40
2019-06-01T14:34:30.992Z,32.20
2019-06-01T14:38:46.400Z,29.70
2019-06-01T14:42:36.561Z,30.80
2019-06-01T14:46:52.778Z,30.30
2019-06-01T14:50:42.091Z,29.50
2019-06-01T14:54:43.997Z,29.00
2019-06-01T14:58:45.903Z,29.50
2019-06-01T15:02:48.269Z,32.40
2019-06-01T15:06:50.319Z,32.10
2019-06-01T15:10:53.577Z,33.10
2019-06-01T15:14:55.910Z,34.00
2019-06-01T15:18:57.903Z,34.80
2019-06-01T15:22:59.811Z,36.20
2019-06-01T15:27:03.032Z,36.80
2019-06-01T15:31:05.455Z,38.20
2019-06-01T15:35:10.644Z,38.90
2019-06-01T15:39:24.059Z,38.70
2019-06-01T15:43:16.196Z,35.60
2019-06-01T15:47:18.103Z,34.40
2019-06-01T15:51:20.014Z,35.40
2019-06-01T15:55:21.974Z,40.90
2019-06-01T15:59:24.814Z,35.80
2019-06-01T16:03:26.750Z,36.70
2019-06-01T16:07:28.713Z,32.80
2019-06-01T16:11:30.891Z,33.10
2019-06-01T16:15:32.797Z,32.90
2019-06-01T16:19:34.696Z,33.40
2019-06-01T16:23:49.390Z,32.10
2019-06-01T16:27:40.228Z,31.10
2019-06-01T16:31:42.231Z,32.60
2019-06-01T16:35:44.313Z,35.00
2019-06-01T16:39:58.800Z,33.80
2019-06-01T16:43:49.864Z,35.00
2019-06-01T16:47:51.764Z,32.90
2019-06-01T16:51:58.773Z,32.40
2019-06-01T16:56:02.044Z,34.80
2019-06-01T17:00:10.831Z,35.20
2019-06-01T17:04:12.732Z,33.00
2019-06-01T17:08:14.621Z,35.40
2019-06-01T17:12:16.609Z,34.20
2019-06-01T17:16:18.525Z,36.10
2019-06-01T17:20:41.320Z,34.90
2019-06-01T17:24:43.317Z,36.00
2019-06-01T17:28:45.330Z,38.10
2019-06-01T17:32:47.240Z,39.00
2019-06-01T17:36:49.144Z,41.10
2019-06-01T17:40:51.049Z,39.40
2019-06-01T17:44:52.959Z,41.50
2019-06-01T17:48:54.840Z,42.50
2019-06-01T17:52:56.841Z,44.70
2019-06-01T17:56:58.758Z,45.60
2019-06-01T18:01:01.881Z,47.80
2019-06-01T18:05:10.068Z,48.00
2019-06-01T18:09:12.314Z,49.70
2019-06-01T18:13:14.658Z,50.20
2019-06-01T18:17:16.661Z,50.50
2019-06-01T18:21:18.646Z,52.00
2019-06-01T18:25:27.419Z,53.30
2019-06-01T18:29:29.313Z,53.00
2019-06-01T18:33:31.222Z,55.50
2019-06-01T18:37:33.132Z,55.70
2019-06-01T18:41:35.151Z,56.70
2019-06-01T18:45:37.502Z,58.30
2019-06-01T18:49:39.734Z,58.10
2019-06-01T18:53:42.653Z,59.00
2019-06-01T18:57:49.158Z,60.40
2019-06-01T19:01:51.072Z,62.40
2019-06-01T19:05:52.967Z,63.20
2019-06-01T19:09:54.865Z,64.50
2019-06-01T19:13:56.777Z,65.80
2019-06-01T19:17:58.687Z,66.90
2019-06-01T19:22:00.641Z,66.70
2019-06-01T19:26:02.533Z,66.60
2019-06-01T19:30:10.827Z,67.40
2019-06-01T19:34:13.129Z,68.70
2019-06-01T19:38:15.572Z,69.20
2019-06-01T19:42:17.723Z,70.90
2019-06-01T19:46:19.645Z,71.90
2019-06-01T19:50:21.545Z,73.20
2019-06-01T19:54:23.451Z,74.20
2019-06-01T19:58:25.346Z,75.20
2019-06-01T20:02:33.725Z,75.80
2019-06-01T20:06:30.921Z,77.10
2019-06-01T20:10:32.824Z,78.10
2019-06-01T20:14:34.724Z,78.00
2019-06-01T20:18:36.631Z,77.30
2019-06-01T20:22:38.639Z,78.90
2019-06-01T20:26:47.996Z,79.60
2019-06-01T20:30:44.154Z,80.30
2019-06-01T20:34:46.060Z,80.10
2019-06-01T20:38:47.963Z,79.80
2019-06-01T20:42:49.935Z,82.20
2019-06-01T20:46:51.843Z,82.80
2019-06-01T20:50:57.686Z,83.40
2019-06-01T20:54:59.592Z,84.70
2019-06-01T20:59:01.620Z,85.00
2019-06-01T21:03:03.522Z,85.30
2019-06-01T21:07:05.497Z,85.00
2019-06-01T21:11:07.407Z,86.00
2019-06-01T21:15:10.121Z,86.10
2019-06-01T21:19:12.024Z,86.30
2019-06-01T21:23:14.435Z,86.20
2019-06-01T21:27:16.563Z,87.00
2019-06-01T21:31:18.964Z,87.20
2019-06-01T21:35:21.393Z,87.50
2019-06-01T21:39:23.589Z,88.10
2019-06-01T21:43:34.787Z,88.60
2019-06-01T21:47:29.044Z,88.70
2019-06-01T21:51:30.954Z,88.90
2019-06-01T21:55:32.857Z,89.50
2019-06-01T21:59:34.809Z,90.00
2019-06-01T22:03:36.896Z,90.30
2019-06-01T22:07:38.796Z,90.60
2019-06-01T22:11:40.690Z,90.70
2019-06-01T22:15:42.669Z,91.10
2019-06-01T22:19:44.558Z,91.20
2019-06-01T22:23:46.470Z,91.30
2019-06-01T22:27:48.374Z,91.70
2019-06-01T22:31:50.285Z,91.50
2019-06-01T22:35:52.189Z,91.40
2019-06-01T22:39:54.071Z,91.50
2019-06-01T22:43:56.021Z,91.60
2019-06-01T22:47:58.344Z,91.60
2019-06-01T22:52:00.246Z,91.70
2019-06-01T22:56:02.162Z,91.70
2019-06-01T23:00:08.603Z,91.70
2019-06-01T23:04:10.504Z,91.70
2019-06-01T23:08:12.411Z,91.80
2019-06-01T23:12:14.303Z,92.20
2019-06-01T23:16:16.228Z,92.50
2019-06-01T23:20:18.189Z,92.80
2019-06-01T23:24:20.110Z,93.00
2019-06-01T23:28:22.028Z,92.90
2019-06-01T23:32:24.508Z,92.90
2019-06-01T23:36:26.589Z,93.00
2019-06-01T23:40:28.756Z,93.10
2019-06-01T23:44:33.524Z,93.00
2019-06-01T23:48:34.295Z,93.10
2019-06-01T23:52:36.178Z,93.40
2019-06-01T23:56:38.075Z,93.20
